sensor_id;sensor_type;location;lat;lon;timestamp;temperature;humidity
4505;DHT22;2265;48.794;9.520;2022-09-09T00:01:27;14.70;98.00
4505;DHT22;2265;48.794;9.520;2022-09-09T00:04:00;14.60;98.00
4505;DHT22;2265;48.794;9.520;2022-09-09T00:06:30;14.70;98.00
4505;DHT22;2265;48.794;9.520;2022-09-09T00:09:04;14.70;98.00
4505;DHT22;2265;48.794;9.520;2022-09-09T00:11:40;14.70;98.00
4505;DHT22;2265;48.794;9.520;2022-09-09T00:14:14;14.80;98.00
4505;DHT22;2265;48.794;9.520;2022-09-09T00:16:50;14.90;98.00
4505;DHT22;2265;48.794;9.520;2022-09-09T00:19:24;14.70;98.00
4505;DHT22;2265;48.794;9.520;2022-09-09T00:22:04;14.60;98.00
4505;DHT22;2265;48.794;9.520;2022-09-09T00:24:38;14.50;98.00
4505;DHT22;2265;48.794;9.520;2022-09-09T00:27:13;14.50;98.00
4505;DHT22;2265;48.794;9.520;2022-09-09T00:29:53;14.50;98.00
4505;DHT22;2265;48.794;9.520;2022-09-09T00:32:22;14.50;98.00
4505;DHT22;2265;48.794;9.520;2022-09-09T00:34:53;14.70;98.00
4505;DHT22;2265;48.794;9.520;2022-09-09T00:37:25;14.50;98.00
4505;DHT22;2265;48.794;9.520;2022-09-09T00:39:55;14.40;98.00
4505;DHT22;2265;48.794;9.520;2022-09-09T00:42:33;14.50;98.00
4505;DHT22;2265;48.794;9.520;2022-09-09T00:45:18;14.50;98.00
4505;DHT22;2265;48.794;9.520;2022-09-09T00:47:50;14.50;98.00
4505;DHT22;2265;48.794;9.520;2022-09-09T00:50:39;14.60;98.00
4505;DHT22;2265;48.794;9.520;2022-09-09T00:53:24;14.70;98.00
4505;DHT22;2265;48.794;9.520;2022-09-09T00:56:03;14.70;98.00
4505;DHT22;2265;48.794;9.520;2022-09-09T00:58:35;14.90;98.00
4505;DHT22;2265;48.794;9.520;2022-09-09T01:01:04;14.90;98.00
4505;DHT22;2265;48.794;9.520;2022-09-09T01:03:38;14.80;98.00
4505;DHT22;2265;48.794;9.520;2022-09-09T01:06:14;14.80;98.00
4505;DHT22;2265;48.794;9.520;2022-09-09T01:09:00;14.80;98.00
4505;DHT22;2265;48.794;9.520;2022-09-09T01:11:36;14.70;98.00
4505;DHT22;2265;48.794;9.520;2022-09-09T01:14:18;14.80;98.00
4505;DHT22;2265;48.794;9.520;2022-09-09T01:16:50;14.90;98.00
4505;DHT22;2265;48.794;9.520;2022-09-09T01:19:27;14.80;98.00
4505;DHT22;2265;48.794;9.520;2022-09-09T01:22:03;14.90;98.00
4505;DHT22;2265;48.794;9.520;2022-09-09T01:24:38;15.00;98.00
4505;DHT22;2265;48.794;9.520;2022-09-09T01:27:09;15.20;98.00
4505;DHT22;2265;48.794;9.520;2022-09-09T01:29:37;15.20;98.00
4505;DHT22;2265;48.794;9.520;2022-09-09T01:32:39;15.30;98.00
4505;DHT22;2265;48.794;9.520;2022-09-09T01:35:08;15.40;98.00
4505;DHT22;2265;48.794;9.520;2022-09-09T01:37:36;15.50;98.00
4505;DHT22;2265;48.794;9.520;2022-09-09T01:40:04;15.40;98.00
4505;DHT22;2265;48.794;9.520;2022-09-09T01:42:34;15.20;98.00
4505;DHT22;2265;48.794;9.520;2022-09-09T01:45:01;15.10;98.00
4505;DHT22;2265;48.794;9.520;2022-09-09T01:47:28;15.20;98.00
4505;DHT22;2265;48.794;9.520;2022-09-09T01:49:55;15.10;98.00
4505;DHT22;2265;48.794;9.520;2022-09-09T01:52:22;15.00;98.00
4505;DHT22;2265;48.794;9.520;2022-09-09T01:54:49;14.90;98.00
4505;DHT22;2265;48.794;9.520;2022-09-09T01:57:21;14.80;98.00
4505;DHT22;2265;48.794;9.520;2022-09-09T02:00:00;14.80;98.00
4505;DHT22;2265;48.794;9.520;2022-09-09T02:02:32;14.60;98.00
4505;DHT22;2265;48.794;9.520;2022-09-09T02:05:12;14.60;98.00
4505;DHT22;2265;48.794;9.520;2022-09-09T02:07:43;14.60;98.00
4505;DHT22;2265;48.794;9.520;2022-09-09T02:10:17;14.50;98.00
4505;DHT22;2265;48.794;9.520;2022-09-09T02:12:49;14.50;98.00
4505;DHT22;2265;48.794;9.520;2022-09-09T02:15:22;14.60;98.00
4505;DHT22;2265;48.794;9.520;2022-09-09T02:17:52;14.60;98.00
4505;DHT22;2265;48.794;9.520;2022-09-09T02:20:22;14.70;98.00
4505;DHT22;2265;48.794;9.520;2022-09-09T02:22:51;14.60;98.00
4505;DHT22;2265;48.794;9.520;2022-09-09T02:25:21;14.80;98.00
4505;DHT22;2265;48.794;9.520;2022-09-09T02:27:50;14.70;98.00
4505;DHT22;2265;48.794;9.520;2022-09-09T02:30:19;14.80;98.00
4505;DHT22;2265;48.794;9.520;2022-09-09T02:32:49;14.70;98.00
4505;DHT22;2265;48.794;9.520;2022-09-09T02:35:20;14.70;98.00
4505;DHT22;2265;48.794;9.520;2022-09-09T02:37:51;14.70;98.00
4505;DHT22;2265;48.794;9.520;2022-09-09T02:40:19;14.80;98.00
4505;DHT22;2265;48.794;9.520;2022-09-09T02:42:48;14.90;98.00
4505;DHT22;2265;48.794;9.520;2022-09-09T02:45:19;14.70;98.00
4505;DHT22;2265;48.794;9.520;2022-09-09T02:47:53;14.70;98.00
4505;DHT22;2265;48.794;9.520;2022-09-09T02:50:27;14.50;98.00
4505;DHT22;2265;48.794;9.520;2022-09-09T02:53:05;14.40;98.00
4505;DHT22;2265;48.794;9.520;2022-09-09T02:55:39;14.30;98.00
4505;DHT22;2265;48.794;9.520;2022-09-09T02:58:09;14.20;98.00
4505;DHT22;2265;48.794;9.520;2022-09-09T03:00:39;14.30;98.00
4505;DHT22;2265;48.794;9.520;2022-09-09T03:03:07;14.20;98.00
4505;DHT22;2265;48.794;9.520;2022-09-09T03:05:35;14.20;98.00
4505;DHT22;2265;48.794;9.520;2022-09-09T03:08:03;13.90;98.00
4505;DHT22;2265;48.794;9.520;2022-09-09T03:10:31;14.00;98.00
4505;DHT22;2265;48.794;9.520;2022-09-09T03:12:58;13.90;98.00
4505;DHT22;2265;48.794;9.520;2022-09-09T03:15:25;14.00;98.00
4505;DHT22;2265;48.794;9.520;2022-09-09T03:17:56;14.00;98.00
4505;DHT22;2265;48.794;9.520;2022-09-09T03:20:23;13.90;98.00
4505;DHT22;2265;48.794;9.520;2022-09-09T03:22:52;13.80;98.00
4505;DHT22;2265;48.794;9.520;2022-09-09T03:25:20;13.80;98.00
4505;DHT22;2265;48.794;9.520;2022-09-09T03:27:49;13.80;98.00
4505;DHT22;2265;48.794;9.520;2022-09-09T03:30:18;13.90;98.00
4505;DHT22;2265;48.794;9.520;2022-09-09T03:32:47;13.80;98.00
4505;DHT22;2265;48.794;9.520;2022-09-09T03:35:16;13.90;98.00
4505;DHT22;2265;48.794;9.520;2022-09-09T03:37:44;14.10;98.00
4505;DHT22;2265;48.794;9.520;2022-09-09T03:40:11;14.20;98.00
4505;DHT22;2265;48.794;9.520;2022-09-09T03:42:39;14.30;98.00
4505;DHT22;2265;48.794;9.520;2022-09-09T03:45:08;14.40;98.00
4505;DHT22;2265;48.794;9.520;2022-09-09T03:47:36;14.60;98.00
4505;DHT22;2265;48.794;9.520;2022-09-09T03:50:04;14.60;98.00
4505;DHT22;2265;48.794;9.520;2022-09-09T03:52:36;14.60;98.00
4505;DHT22;2265;48.794;9.520;2022-09-09T03:55:04;14.50;98.00
4505;DHT22;2265;48.794;9.520;2022-09-09T03:57:32;14.50;98.00
4505;DHT22;2265;48.794;9.520;2022-09-09T04:00:01;14.40;98.00
4505;DHT22;2265;48.794;9.520;2022-09-09T04:02:31;14.50;98.00
4505;DHT22;2265;48.794;9.520;2022-09-09T04:04:58;14.40;98.00
4505;DHT22;2265;48.794;9.520;2022-09-09T04:07:25;14.50;98.00
4505;DHT22;2265;48.794;9.520;2022-09-09T04:09:55;14.60;98.00
4505;DHT22;2265;48.794;9.520;2022-09-09T04:12:22;14.60;98.00
4505;DHT22;2265;48.794;9.520;2022-09-09T04:14:51;14.60;98.00
4505;DHT22;2265;48.794;9.520;2022-09-09T04:17:18;14.70;98.00
4505;DHT22;2265;48.794;9.520;2022-09-09T04:19:45;14.60;98.00
4505;DHT22;2265;48.794;9.520;2022-09-09T04:22:14;14.80;98.00
4505;DHT22;2265;48.794;9.520;2022-09-09T04:24:41;14.70;98.00
4505;DHT22;2265;48.794;9.520;2022-09-09T04:27:10;14.70;98.00
4505;DHT22;2265;48.794;9.520;2022-09-09T04:29:37;14.70;98.00
4505;DHT22;2265;48.794;9.520;2022-09-09T04:32:05;14.70;98.00
4505;DHT22;2265;48.794;9.520;2022-09-09T04:34:32;14.50;98.00
4505;DHT22;2265;48.794;9.520;2022-09-09T04:36:59;14.60;98.00
4505;DHT22;2265;48.794;9.520;2022-09-09T04:39:28;14.60;98.00
4505;DHT22;2265;48.794;9.520;2022-09-09T04:41:56;14.60;98.00
4505;DHT22;2265;48.794;9.520;2022-09-09T04:44:24;14.60;98.00
4505;DHT22;2265;48.794;9.520;2022-09-09T04:46:51;14.60;98.00
4505;DHT22;2265;48.794;9.520;2022-09-09T04:49:18;14.50;98.00
4505;DHT22;2265;48.794;9.520;2022-09-09T04:51:45;14.30;98.00
4505;DHT22;2265;48.794;9.520;2022-09-09T04:54:13;14.20;98.00
4505;DHT22;2265;48.794;9.520;2022-09-09T04:56:40;14.20;98.00
4505;DHT22;2265;48.794;9.520;2022-09-09T04:59:09;14.20;98.00
4505;DHT22;2265;48.794;9.520;2022-09-09T05:01:37;14.20;98.00
4505;DHT22;2265;48.794;9.520;2022-09-09T05:04:04;14.30;98.00
4505;DHT22;2265;48.794;9.520;2022-09-09T05:06:31;14.20;98.00
4505;DHT22;2265;48.794;9.520;2022-09-09T05:08:58;14.10;98.00
4505;DHT22;2265;48.794;9.520;2022-09-09T05:11:27;14.10;98.00
4505;DHT22;2265;48.794;9.520;2022-09-09T05:13:55;14.20;98.00
4505;DHT22;2265;48.794;9.520;2022-09-09T05:16:24;14.20;98.00
4505;DHT22;2265;48.794;9.520;2022-09-09T05:18:56;14.30;98.00
4505;DHT22;2265;48.794;9.520;2022-09-09T05:21:24;14.30;98.00
4505;DHT22;2265;48.794;9.520;2022-09-09T05:23:52;14.30;98.00
4505;DHT22;2265;48.794;9.520;2022-09-09T05:26:20;14.30;98.00
4505;DHT22;2265;48.794;9.520;2022-09-09T05:28:48;14.40;98.00
4505;DHT22;2265;48.794;9.520;2022-09-09T05:31:17;14.40;98.00
4505;DHT22;2265;48.794;9.520;2022-09-09T05:33:45;14.40;98.00
4505;DHT22;2265;48.794;9.520;2022-09-09T05:36:16;14.50;98.00
4505;DHT22;2265;48.794;9.520;2022-09-09T05:38:44;14.60;98.00
4505;DHT22;2265;48.794;9.520;2022-09-09T05:41:11;14.60;98.00
4505;DHT22;2265;48.794;9.520;2022-09-09T05:43:41;14.60;98.00
4505;DHT22;2265;48.794;9.520;2022-09-09T05:46:11;14.70;98.00
4505;DHT22;2265;48.794;9.520;2022-09-09T05:48:40;15.10;98.00
4505;DHT22;2265;48.794;9.520;2022-09-09T05:51:10;15.30;98.00
4505;DHT22;2265;48.794;9.520;2022-09-09T05:53:39;15.40;98.00
4505;DHT22;2265;48.794;9.520;2022-09-09T05:56:08;15.40;98.00
4505;DHT22;2265;48.794;9.520;2022-09-09T05:58:37;15.40;98.00
4505;DHT22;2265;48.794;9.520;2022-09-09T06:01:05;15.40;98.00
4505;DHT22;2265;48.794;9.520;2022-09-09T06:03:33;15.60;98.00
4505;DHT22;2265;48.794;9.520;2022-09-09T06:06:01;15.50;98.00
4505;DHT22;2265;48.794;9.520;2022-09-09T06:08:31;15.60;98.00
4505;DHT22;2265;48.794;9.520;2022-09-09T06:11:03;15.80;98.00
4505;DHT22;2265;48.794;9.520;2022-09-09T06:13:31;15.80;98.00
4505;DHT22;2265;48.794;9.520;2022-09-09T06:15:58;15.90;98.00
4505;DHT22;2265;48.794;9.520;2022-09-09T06:18:26;15.90;98.00
4505;DHT22;2265;48.794;9.520;2022-09-09T06:20:54;15.90;98.00
4505;DHT22;2265;48.794;9.520;2022-09-09T06:23:22;16.00;98.00
4505;DHT22;2265;48.794;9.520;2022-09-09T06:25:49;16.10;98.00
4505;DHT22;2265;48.794;9.520;2022-09-09T06:28:18;16.10;98.00
4505;DHT22;2265;48.794;9.520;2022-09-09T06:30:45;16.20;98.00
4505;DHT22;2265;48.794;9.520;2022-09-09T06:33:12;16.20;98.00
4505;DHT22;2265;48.794;9.520;2022-09-09T06:35:40;16.30;98.00
4505;DHT22;2265;48.794;9.520;2022-09-09T06:38:07;16.40;98.00
4505;DHT22;2265;48.794;9.520;2022-09-09T06:40:34;16.50;98.00
4505;DHT22;2265;48.794;9.520;2022-09-09T06:43:02;16.50;98.00
4505;DHT22;2265;48.794;9.520;2022-09-09T06:45:32;16.50;98.00
4505;DHT22;2265;48.794;9.520;2022-09-09T06:48:02;16.70;98.00
4505;DHT22;2265;48.794;9.520;2022-09-09T06:50:29;16.70;98.00
4505;DHT22;2265;48.794;9.520;2022-09-09T06:52:56;16.70;98.00
4505;DHT22;2265;48.794;9.520;2022-09-09T06:55:23;16.80;98.00
4505;DHT22;2265;48.794;9.520;2022-09-09T06:57:50;16.90;98.00
4505;DHT22;2265;48.794;9.520;2022-09-09T07:00:18;17.00;98.00
4505;DHT22;2265;48.794;9.520;2022-09-09T07:02:47;17.10;98.00
4505;DHT22;2265;48.794;9.520;2022-09-09T07:05:16;17.20;98.00
4505;DHT22;2265;48.794;9.520;2022-09-09T07:07:49;17.20;98.00
4505;DHT22;2265;48.794;9.520;2022-09-09T07:10:17;17.40;98.00
4505;DHT22;2265;48.794;9.520;2022-09-09T07:12:44;17.50;98.00
4505;DHT22;2265;48.794;9.520;2022-09-09T07:15:12;17.60;98.00
4505;DHT22;2265;48.794;9.520;2022-09-09T07:17:39;17.60;98.00
4505;DHT22;2265;48.794;9.520;2022-09-09T07:20:09;17.70;98.00
4505;DHT22;2265;48.794;9.520;2022-09-09T07:22:37;17.80;98.00
4505;DHT22;2265;48.794;9.520;2022-09-09T07:25:05;17.80;98.00
4505;DHT22;2265;48.794;9.520;2022-09-09T07:27:35;17.90;98.00
4505;DHT22;2265;48.794;9.520;2022-09-09T07:30:05;18.00;98.00
4505;DHT22;2265;48.794;9.520;2022-09-09T07:32:32;18.10;98.00
4505;DHT22;2265;48.794;9.520;2022-09-09T07:34:59;18.00;98.00
4505;DHT22;2265;48.794;9.520;2022-09-09T07:37:28;18.30;98.00
4505;DHT22;2265;48.794;9.520;2022-09-09T07:39:55;18.40;98.00
4505;DHT22;2265;48.794;9.520;2022-09-09T07:42:22;18.60;98.00
4505;DHT22;2265;48.794;9.520;2022-09-09T07:44:49;18.70;98.00
4505;DHT22;2265;48.794;9.520;2022-09-09T07:47:20;18.90;98.00
4505;DHT22;2265;48.794;9.520;2022-09-09T07:49:48;19.00;98.00
4505;DHT22;2265;48.794;9.520;2022-09-09T07:52:15;19.10;98.00
4505;DHT22;2265;48.794;9.520;2022-09-09T07:54:44;19.10;98.00
4505;DHT22;2265;48.794;9.520;2022-09-09T07:57:11;19.20;98.00
4505;DHT22;2265;48.794;9.520;2022-09-09T07:59:38;19.30;98.00
4505;DHT22;2265;48.794;9.520;2022-09-09T08:02:05;19.30;98.00
4505;DHT22;2265;48.794;9.520;2022-09-09T08:04:32;19.40;98.00
4505;DHT22;2265;48.794;9.520;2022-09-09T08:07:01;19.40;98.00
4505;DHT22;2265;48.794;9.520;2022-09-09T08:09:29;19.40;98.00
4505;DHT22;2265;48.794;9.520;2022-09-09T08:11:59;19.40;98.00
4505;DHT22;2265;48.794;9.520;2022-09-09T08:14:27;19.60;98.00
4505;DHT22;2265;48.794;9.520;2022-09-09T08:16:55;19.70;98.00
4505;DHT22;2265;48.794;9.520;2022-09-09T08:19:22;19.90;98.00
4505;DHT22;2265;48.794;9.520;2022-09-09T08:21:50;19.90;98.00
4505;DHT22;2265;48.794;9.520;2022-09-09T08:24:17;20.10;98.00
4505;DHT22;2265;48.794;9.520;2022-09-09T08:26:46;20.10;98.00
4505;DHT22;2265;48.794;9.520;2022-09-09T08:29:16;20.20;98.00
4505;DHT22;2265;48.794;9.520;2022-09-09T08:31:45;20.30;98.00
4505;DHT22;2265;48.794;9.520;2022-09-09T08:34:12;20.20;98.00
4505;DHT22;2265;48.794;9.520;2022-09-09T08:36:42;20.40;98.00
4505;DHT22;2265;48.794;9.520;2022-09-09T08:39:11;20.50;98.00
4505;DHT22;2265;48.794;9.520;2022-09-09T08:44:41;20.90;98.00
4505;DHT22;2265;48.794;9.520;2022-09-09T08:47:13;20.90;98.00
4505;DHT22;2265;48.794;9.520;2022-09-09T08:49:59;21.00;98.00
4505;DHT22;2265;48.794;9.520;2022-09-09T08:52:37;21.00;98.00
4505;DHT22;2265;48.794;9.520;2022-09-09T08:55:15;21.00;98.00
4505;DHT22;2265;48.794;9.520;2022-09-09T08:57:45;21.00;98.00
4505;DHT22;2265;48.794;9.520;2022-09-09T09:00:14;21.20;98.00
4505;DHT22;2265;48.794;9.520;2022-09-09T09:02:48;21.30;98.00
4505;DHT22;2265;48.794;9.520;2022-09-09T09:05:25;21.30;98.00
4505;DHT22;2265;48.794;9.520;2022-09-09T09:08:01;21.20;98.00
4505;DHT22;2265;48.794;9.520;2022-09-09T09:10:38;21.20;98.00
4505;DHT22;2265;48.794;9.520;2022-09-09T09:13:14;21.30;98.00
4505;DHT22;2265;48.794;9.520;2022-09-09T09:15:44;21.30;98.00
4505;DHT22;2265;48.794;9.520;2022-09-09T09:18:13;21.40;98.00
4505;DHT22;2265;48.794;9.520;2022-09-09T09:20:49;21.40;98.00
4505;DHT22;2265;48.794;9.520;2022-09-09T09:23:22;21.50;98.00
4505;DHT22;2265;48.794;9.520;2022-09-09T09:25:56;21.60;98.00
4505;DHT22;2265;48.794;9.520;2022-09-09T09:28:27;21.80;98.00
4505;DHT22;2265;48.794;9.520;2022-09-09T09:31:01;22.00;98.00
4505;DHT22;2265;48.794;9.520;2022-09-09T09:33:35;22.40;98.00
4505;DHT22;2265;48.794;9.520;2022-09-09T09:36:06;22.70;98.00
4505;DHT22;2265;48.794;9.520;2022-09-09T09:38:36;22.80;98.00
4505;DHT22;2265;48.794;9.520;2022-09-09T09:41:03;22.90;98.00
4505;DHT22;2265;48.794;9.520;2022-09-09T09:43:32;22.80;97.00
4505;DHT22;2265;48.794;9.520;2022-09-09T09:46:03;22.90;98.00
4505;DHT22;2265;48.794;9.520;2022-09-09T09:48:31;23.10;97.50
4505;DHT22;2265;48.794;9.520;2022-09-09T09:51:01;23.30;96.60
4505;DHT22;2265;48.794;9.520;2022-09-09T09:53:31;23.60;96.00
4505;DHT22;2265;48.794;9.520;2022-09-09T09:56:00;23.80;94.40
4505;DHT22;2265;48.794;9.520;2022-09-09T09:58:31;24.00;94.50
4505;DHT22;2265;48.794;9.520;2022-09-09T10:01:01;24.20;94.00
4505;DHT22;2265;48.794;9.520;2022-09-09T10:03:29;24.40;94.40
4505;DHT22;2265;48.794;9.520;2022-09-09T10:05:57;24.50;92.90
4505;DHT22;2265;48.794;9.520;2022-09-09T10:08:25;24.70;92.00
4505;DHT22;2265;48.794;9.520;2022-09-09T10:11:07;24.70;91.80
4505;DHT22;2265;48.794;9.520;2022-09-09T10:13:47;24.70;92.00
4505;DHT22;2265;48.794;9.520;2022-09-09T10:16:29;24.70;89.20
4505;DHT22;2265;48.794;9.520;2022-09-09T10:19:04;24.60;88.70
4505;DHT22;2265;48.794;9.520;2022-09-09T10:21:48;24.50;84.60
4505;DHT22;2265;48.794;9.520;2022-09-09T10:24:36;24.20;85.10
4505;DHT22;2265;48.794;9.520;2022-09-09T10:27:16;23.90;84.80
4505;DHT22;2265;48.794;9.520;2022-09-09T10:30:00;23.90;85.90
4505;DHT22;2265;48.794;9.520;2022-09-09T10:32:37;23.80;89.30
4505;DHT22;2265;48.794;9.520;2022-09-09T10:35:12;23.70;89.90
4505;DHT22;2265;48.794;9.520;2022-09-09T10:37:54;23.90;89.50
4505;DHT22;2265;48.794;9.520;2022-09-09T10:40:32;24.20;89.40
4505;DHT22;2265;48.794;9.520;2022-09-09T10:43:08;24.50;87.60
4505;DHT22;2265;48.794;9.520;2022-09-09T10:45:45;24.60;88.60
4505;DHT22;2265;48.794;9.520;2022-09-09T10:48:34;25.00;87.30
4505;DHT22;2265;48.794;9.520;2022-09-09T10:51:17;25.40;86.60
4505;DHT22;2265;48.794;9.520;2022-09-09T10:53:55;25.30;85.40
4505;DHT22;2265;48.794;9.520;2022-09-09T10:56:30;25.30;85.70
4505;DHT22;2265;48.794;9.520;2022-09-09T10:59:02;25.10;86.40
4505;DHT22;2265;48.794;9.520;2022-09-09T11:01:36;25.20;86.60
4505;DHT22;2265;48.794;9.520;2022-09-09T11:04:11;25.70;87.30
4505;DHT22;2265;48.794;9.520;2022-09-09T11:06:42;26.10;85.80
4505;DHT22;2265;48.794;9.520;2022-09-09T11:09:16;26.20;82.90
4505;DHT22;2265;48.794;9.520;2022-09-09T11:11:53;26.40;84.80
4505;DHT22;2265;48.794;9.520;2022-09-09T11:14:28;26.80;83.50
4505;DHT22;2265;48.794;9.520;2022-09-09T11:16:58;26.50;82.60
4505;DHT22;2265;48.794;9.520;2022-09-09T11:19:32;26.20;83.80
4505;DHT22;2265;48.794;9.520;2022-09-09T11:22:02;26.30;84.20
4505;DHT22;2265;48.794;9.520;2022-09-09T11:24:35;26.10;81.90
4505;DHT22;2265;48.794;9.520;2022-09-09T11:27:09;26.30;81.70
4505;DHT22;2265;48.794;9.520;2022-09-09T11:30:02;26.50;80.90
4505;DHT22;2265;48.794;9.520;2022-09-09T11:36:00;27.40;81.00
4505;DHT22;2265;48.794;9.520;2022-09-09T11:38:34;27.80;78.90
4505;DHT22;2265;48.794;9.520;2022-09-09T11:41:05;27.80;78.20
4505;DHT22;2265;48.794;9.520;2022-09-09T11:43:41;27.40;78.50
4505;DHT22;2265;48.794;9.520;2022-09-09T11:46:10;26.70;79.50
4505;DHT22;2265;48.794;9.520;2022-09-09T11:48:41;26.00;79.80
4505;DHT22;2265;48.794;9.520;2022-09-09T11:51:24;25.40;82.10
4505;DHT22;2265;48.794;9.520;2022-09-09T11:53:56;24.80;84.10
4505;DHT22;2265;48.794;9.520;2022-09-09T11:56:26;24.20;86.80
4505;DHT22;2265;48.794;9.520;2022-09-09T11:58:57;23.70;88.20
4505;DHT22;2265;48.794;9.520;2022-09-09T12:01:34;23.20;93.80
4505;DHT22;2265;48.794;9.520;2022-09-09T12:07:26;21.30;98.00
4505;DHT22;2265;48.794;9.520;2022-09-09T12:09:58;20.90;98.00
4505;DHT22;2265;48.794;9.520;2022-09-09T12:12:31;20.80;98.00
4505;DHT22;2265;48.794;9.520;2022-09-09T12:15:02;20.60;98.00
4505;DHT22;2265;48.794;9.520;2022-09-09T12:17:31;20.30;98.00
4505;DHT22;2265;48.794;9.520;2022-09-09T12:20:10;20.50;98.00
4505;DHT22;2265;48.794;9.520;2022-09-09T12:23:00;21.40;98.00
4505;DHT22;2265;48.794;9.520;2022-09-09T12:25:52;22.50;98.00
4505;DHT22;2265;48.794;9.520;2022-09-09T12:28:27;23.50;98.00
4505;DHT22;2265;48.794;9.520;2022-09-09T12:31:06;24.20;98.00
4505;DHT22;2265;48.794;9.520;2022-09-09T12:33:35;24.50;98.00
4505;DHT22;2265;48.794;9.520;2022-09-09T12:36:04;25.00;98.00
4505;DHT22;2265;48.794;9.520;2022-09-09T12:38:36;25.40;96.20
4505;DHT22;2265;48.794;9.520;2022-09-09T12:41:03;25.80;98.00
4505;DHT22;2265;48.794;9.520;2022-09-09T12:43:31;26.20;96.80
4505;DHT22;2265;48.794;9.520;2022-09-09T12:46:01;26.40;93.20
4505;DHT22;2265;48.794;9.520;2022-09-09T12:48:33;26.60;93.00
4505;DHT22;2265;48.794;9.520;2022-09-09T12:51:19;26.80;93.10
4505;DHT22;2265;48.794;9.520;2022-09-09T12:53:51;26.80;91.60
4505;DHT22;2265;48.794;9.520;2022-09-09T12:56:20;26.50;91.70
4505;DHT22;2265;48.794;9.520;2022-09-09T12:58:50;26.10;91.20
4505;DHT22;2265;48.794;9.520;2022-09-09T13:01:22;25.50;91.70
4505;DHT22;2265;48.794;9.520;2022-09-09T13:03:49;25.40;93.80
4505;DHT22;2265;48.794;9.520;2022-09-09T13:06:20;25.30;91.50
4505;DHT22;2265;48.794;9.520;2022-09-09T13:08:50;25.80;96.40
4505;DHT22;2265;48.794;9.520;2022-09-09T13:11:20;26.20;91.90
4505;DHT22;2265;48.794;9.520;2022-09-09T13:13:51;26.30;88.50
4505;DHT22;2265;48.794;9.520;2022-09-09T13:16:21;26.00;90.00
4505;DHT22;2265;48.794;9.520;2022-09-09T13:18:50;25.50;90.70
4505;DHT22;2265;48.794;9.520;2022-09-09T13:21:18;25.10;95.30
4505;DHT22;2265;48.794;9.520;2022-09-09T13:23:50;24.80;95.70
4505;DHT22;2265;48.794;9.520;2022-09-09T13:26:23;24.70;95.00
4505;DHT22;2265;48.794;9.520;2022-09-09T13:28:51;24.50;98.00
4505;DHT22;2265;48.794;9.520;2022-09-09T13:31:24;24.30;96.30
4505;DHT22;2265;48.794;9.520;2022-09-09T13:33:54;24.30;98.00
4505;DHT22;2265;48.794;9.520;2022-09-09T13:36:29;24.00;98.00
4505;DHT22;2265;48.794;9.520;2022-09-09T13:38:59;23.90;98.00
4505;DHT22;2265;48.794;9.520;2022-09-09T13:41:30;23.90;98.00
4505;DHT22;2265;48.794;9.520;2022-09-09T13:43:59;24.10;98.00
4505;DHT22;2265;48.794;9.520;2022-09-09T13:46:32;24.10;98.00
4505;DHT22;2265;48.794;9.520;2022-09-09T13:49:01;24.00;97.10
4505;DHT22;2265;48.794;9.520;2022-09-09T13:51:33;23.80;98.00
4505;DHT22;2265;48.794;9.520;2022-09-09T13:54:04;23.60;98.00
4505;DHT22;2265;48.794;9.520;2022-09-09T13:56:33;23.50;98.00
4505;DHT22;2265;48.794;9.520;2022-09-09T13:59:00;23.40;98.00
4505;DHT22;2265;48.794;9.520;2022-09-09T14:01:27;23.20;96.70
4505;DHT22;2265;48.794;9.520;2022-09-09T14:03:54;23.20;95.10
4505;DHT22;2265;48.794;9.520;2022-09-09T14:06:22;23.20;97.10
4505;DHT22;2265;48.794;9.520;2022-09-09T14:08:50;23.50;98.00
4505;DHT22;2265;48.794;9.520;2022-09-09T14:11:19;23.50;94.30
4505;DHT22;2265;48.794;9.520;2022-09-09T14:13:47;23.70;97.10
4505;DHT22;2265;48.794;9.520;2022-09-09T14:16:15;23.80;92.10
4505;DHT22;2265;48.794;9.520;2022-09-09T14:18:44;24.00;92.90
4505;DHT22;2265;48.794;9.520;2022-09-09T14:21:11;24.20;93.00
4505;DHT22;2265;48.794;9.520;2022-09-09T14:23:41;24.70;94.40
4505;DHT22;2265;48.794;9.520;2022-09-09T14:26:08;24.90;89.50
4505;DHT22;2265;48.794;9.520;2022-09-09T14:28:37;24.80;88.50
4505;DHT22;2265;48.794;9.520;2022-09-09T14:31:06;25.20;87.60
4505;DHT22;2265;48.794;9.520;2022-09-09T14:33:33;25.00;86.50
4505;DHT22;2265;48.794;9.520;2022-09-09T14:36:03;24.90;86.40
4505;DHT22;2265;48.794;9.520;2022-09-09T14:38:31;25.00;87.30
4505;DHT22;2265;48.794;9.520;2022-09-09T14:40:59;25.20;86.10
4505;DHT22;2265;48.794;9.520;2022-09-09T14:43:28;26.00;86.00
4505;DHT22;2265;48.794;9.520;2022-09-09T14:46:04;26.20;84.90
4505;DHT22;2265;48.794;9.520;2022-09-09T14:48:32;26.00;82.70
4505;DHT22;2265;48.794;9.520;2022-09-09T14:51:05;25.90;82.40
4505;DHT22;2265;48.794;9.520;2022-09-09T14:53:33;25.70;85.20
4505;DHT22;2265;48.794;9.520;2022-09-09T14:56:05;25.60;82.90
4505;DHT22;2265;48.794;9.520;2022-09-09T14:58:32;25.40;82.60
4505;DHT22;2265;48.794;9.520;2022-09-09T15:01:06;25.50;83.80
4505;DHT22;2265;48.794;9.520;2022-09-09T15:03:35;25.10;82.90
4505;DHT22;2265;48.794;9.520;2022-09-09T15:06:07;25.00;83.90
4505;DHT22;2265;48.794;9.520;2022-09-09T15:08:35;24.70;83.60
4505;DHT22;2265;48.794;9.520;2022-09-09T15:11:03;25.10;83.70
4505;DHT22;2265;48.794;9.520;2022-09-09T15:13:31;25.20;84.10
4505;DHT22;2265;48.794;9.520;2022-09-09T15:16:05;25.40;83.20
4505;DHT22;2265;48.794;9.520;2022-09-09T15:18:33;26.10;82.20
4505;DHT22;2265;48.794;9.520;2022-09-09T15:21:02;26.30;80.20
4505;DHT22;2265;48.794;9.520;2022-09-09T15:23:31;26.50;78.50
4505;DHT22;2265;48.794;9.520;2022-09-09T15:25:58;26.80;76.00
4505;DHT22;2265;48.794;9.520;2022-09-09T15:28:26;27.30;74.10
4505;DHT22;2265;48.794;9.520;2022-09-09T15:30:54;27.40;76.30
4505;DHT22;2265;48.794;9.520;2022-09-09T15:33:31;27.70;74.70
4505;DHT22;2265;48.794;9.520;2022-09-09T15:35:58;27.80;75.90
4505;DHT22;2265;48.794;9.520;2022-09-09T15:38:25;27.70;73.80
4505;DHT22;2265;48.794;9.520;2022-09-09T15:40:55;27.50;74.40
4505;DHT22;2265;48.794;9.520;2022-09-09T15:43:24;27.40;76.10
4505;DHT22;2265;48.794;9.520;2022-09-09T15:45:54;27.20;75.00
4505;DHT22;2265;48.794;9.520;2022-09-09T15:48:31;26.70;73.80
4505;DHT22;2265;48.794;9.520;2022-09-09T15:51:02;26.00;76.60
4505;DHT22;2265;48.794;9.520;2022-09-09T15:53:29;25.80;80.80
4505;DHT22;2265;48.794;9.520;2022-09-09T15:55:58;26.00;77.20
4505;DHT22;2265;48.794;9.520;2022-09-09T15:58:29;26.20;77.10
4505;DHT22;2265;48.794;9.520;2022-09-09T16:01:02;26.20;78.80
4505;DHT22;2265;48.794;9.520;2022-09-09T16:03:33;26.00;79.10
4505;DHT22;2265;48.794;9.520;2022-09-09T16:06:01;25.50;83.90
4505;DHT22;2265;48.794;9.520;2022-09-09T16:08:31;25.20;78.80
4505;DHT22;2265;48.794;9.520;2022-09-09T16:11:05;24.70;80.20
4505;DHT22;2265;48.794;9.520;2022-09-09T16:13:33;24.50;80.80
4505;DHT22;2265;48.794;9.520;2022-09-09T16:16:01;24.10;81.20
4505;DHT22;2265;48.794;9.520;2022-09-09T16:21:00;23.60;83.10
4505;DHT22;2265;48.794;9.520;2022-09-09T16:23:28;23.50;86.70
4505;DHT22;2265;48.794;9.520;2022-09-09T16:25:56;23.40;86.80
4505;DHT22;2265;48.794;9.520;2022-09-09T16:28:26;23.50;88.20
4505;DHT22;2265;48.794;9.520;2022-09-09T16:33:22;23.50;87.90
4505;DHT22;2265;48.794;9.520;2022-09-09T16:35:49;23.60;88.90
4505;DHT22;2265;48.794;9.520;2022-09-09T16:38:17;23.70;85.70
4505;DHT22;2265;48.794;9.520;2022-09-09T16:40:44;23.50;84.80